createdAt,value
2023-03-30T00:01:43.732Z,4.60
2023-03-30T00:04:13.473Z,3.60
2023-03-30T00:06:42.641Z,3.20
2023-03-30T00:09:10.916Z,4.40
2023-03-30T00:11:43.596Z,5.20
2023-03-30T00:14:12.591Z,5.50
2023-03-30T00:16:41.438Z,4.70
2023-03-30T00:19:09.652Z,7.80
2023-03-30T00:21:38.243Z,6.90
2023-03-30T00:24:07.331Z,6.80
2023-03-30T00:26:36.897Z,5.30
2023-03-30T00:29:06.454Z,4.80
2023-03-30T00:31:34.991Z,6.20
2023-03-30T00:34:03.203Z,5.40
2023-03-30T00:36:37.214Z,6.00
2023-03-30T00:39:07.105Z,4.50
2023-03-30T00:41:36.074Z,4.40
2023-03-30T00:44:07.578Z,3.50
2023-03-30T00:46:36.616Z,5.80
2023-03-30T00:49:09.352Z,6.50
2023-03-30T00:51:42.946Z,7.30
2023-03-30T00:54:14.619Z,4.60
2023-03-30T00:56:43.379Z,5.70
2023-03-30T00:59:12.081Z,4.50
2023-03-30T01:01:43.551Z,4.10
2023-03-30T01:04:14.341Z,5.70
2023-03-30T01:06:46.157Z,3.60
2023-03-30T01:09:15.644Z,5.60
2023-03-30T01:11:44.938Z,6.60
2023-03-30T01:14:13.926Z,5.30
2023-03-30T01:17:14.200Z,4.20
2023-03-30T01:20:12.237Z,4.10
2023-03-30T01:22:52.902Z,4.70
2023-03-30T01:25:30.090Z,3.40
2023-03-30T01:28:18.876Z,5.30
2023-03-30T01:31:14.924Z,5.90
2023-03-30T01:34:01.579Z,4.80
2023-03-30T01:36:42.653Z,5.60
2023-03-30T01:39:13.492Z,6.60
2023-03-30T01:42:05.937Z,6.40
2023-03-30T01:45:01.549Z,3.90
2023-03-30T01:47:40.156Z,4.30
2023-03-30T01:50:13.351Z,5.80
2023-03-30T01:52:53.930Z,6.20
2023-03-30T01:55:44.937Z,6.30
2023-03-30T01:58:18.237Z,4.20
2023-03-30T02:00:50.524Z,3.90
2023-03-30T02:03:22.808Z,4.90
2023-03-30T02:05:52.429Z,5.40
2023-03-30T02:08:25.130Z,3.60
2023-03-30T02:10:53.643Z,4.40
2023-03-30T02:13:22.899Z,6.20
2023-03-30T02:16:04.646Z,4.30
2023-03-30T02:18:34.048Z,5.70
2023-03-30T02:21:02.798Z,4.30
2023-03-30T02:23:35.918Z,6.60
2023-03-30T02:26:04.943Z,4.70
2023-03-30T02:28:35.349Z,8.10
2023-03-30T02:31:04.532Z,5.70
2023-03-30T02:33:49.050Z,8.00
2023-03-30T02:36:37.701Z,10.00
2023-03-30T02:39:18.690Z,14.10
2023-03-30T02:42:13.290Z,17.70
2023-03-30T02:45:00.457Z,25.90
2023-03-30T02:47:34.464Z,15.90
2023-03-30T02:50:14.634Z,24.10
2023-03-30T02:53:00.186Z,38.30
2023-03-30T02:55:38.521Z,62.10
2023-03-30T02:58:32.631Z,61.00
2023-03-30T03:01:18.297Z,83.50
2023-03-30T03:04:13.250Z,60.80
2023-03-30T03:06:53.230Z,37.40
2023-03-30T03:09:21.907Z,42.50
2023-03-30T03:11:50.186Z,32.30
2023-03-30T03:14:18.871Z,21.80
2023-03-30T03:16:48.018Z,19.10
2023-03-30T03:19:16.996Z,15.70
2023-03-30T03:21:47.904Z,15.40
2023-03-30T03:24:18.018Z,15.50
2023-03-30T03:27:04.429Z,22.30
2023-03-30T03:29:38.024Z,14.70
2023-03-30T03:32:08.221Z,10.80
2023-03-30T03:34:45.029Z,14.60
2023-03-30T03:37:14.837Z,13.00
2023-03-30T03:39:49.564Z,7.60
2023-03-30T03:42:18.043Z,8.50
2023-03-30T03:44:52.579Z,9.40
2023-03-30T03:47:23.290Z,9.40
2023-03-30T03:49:51.790Z,6.70
2023-03-30T03:52:20.470Z,8.50
2023-03-30T03:54:48.950Z,7.50
2023-03-30T03:57:26.232Z,4.90
2023-03-30T03:59:57.182Z,7.60
2023-03-30T04:02:26.944Z,8.00
2023-03-30T04:04:56.035Z,8.70
2023-03-30T04:07:25.670Z,12.10
2023-03-30T04:09:54.075Z,10.00
2023-03-30T04:12:54.612Z,7.10
2023-03-30T04:15:49.621Z,7.30
2023-03-30T04:18:33.704Z,9.80
2023-03-30T04:21:21.802Z,6.10
2023-03-30T04:24:04.832Z,5.40
2023-03-30T04:26:52.237Z,8.60
2023-03-30T04:29:40.901Z,6.50
2023-03-30T04:32:21.336Z,7.30
2023-03-30T04:34:56.706Z,5.60
2023-03-30T04:37:30.609Z,6.80
2023-03-30T04:40:16.480Z,7.10
2023-03-30T04:43:14.282Z,6.40
2023-03-30T04:45:56.351Z,6.20
2023-03-30T04:48:44.639Z,6.70
2023-03-30T04:51:18.738Z,5.70
2023-03-30T04:54:07.084Z,5.00
2023-03-30T04:56:55.758Z,5.90
2023-03-30T04:59:43.487Z,6.70
2023-03-30T05:02:38.571Z,7.90
2023-03-30T05:05:30.936Z,4.10
2023-03-30T05:08:25.856Z,6.10
2023-03-30T05:11:17.046Z,6.30
2023-03-30T05:13:54.756Z,5.80
2023-03-30T05:16:43.200Z,6.80
2023-03-30T05:19:26.395Z,5.30
2023-03-30T05:22:12.607Z,6.30
2023-03-30T05:24:46.926Z,8.40
2023-03-30T05:27:33.838Z,8.80
2023-03-30T05:30:28.438Z,5.90
2023-03-30T05:33:16.063Z,4.50
2023-03-30T05:36:05.064Z,6.10
2023-03-30T05:38:56.444Z,4.00
2023-03-30T05:41:43.560Z,7.60
2023-03-30T05:44:29.048Z,5.10
2023-03-30T05:47:22.314Z,5.20
2023-03-30T05:50:13.847Z,8.00
2023-03-30T05:52:53.375Z,5.80
2023-03-30T05:55:48.162Z,4.00
2023-03-30T05:58:46.543Z,5.90
2023-03-30T06:01:27.418Z,5.90
2023-03-30T06:03:57.295Z,6.00
2023-03-30T06:06:25.407Z,6.10
2023-03-30T06:08:56.093Z,6.40
2023-03-30T06:11:26.377Z,7.00
2023-03-30T06:14:17.638Z,4.20
2023-03-30T06:16:53.572Z,7.90
2023-03-30T06:19:22.014Z,7.30
2023-03-30T06:21:50.767Z,5.10
2023-03-30T06:24:38.124Z,6.30
2023-03-30T06:27:06.197Z,6.20
2023-03-30T06:29:35.003Z,5.50
2023-03-30T06:32:04.213Z,5.90
2023-03-30T06:34:53.465Z,6.70
2023-03-30T06:37:22.442Z,5.80
2023-03-30T06:39:51.029Z,3.60
2023-03-30T06:42:19.728Z,5.30
2023-03-30T06:45:09.629Z,4.70
2023-03-30T06:47:39.650Z,5.40
2023-03-30T06:50:08.929Z,4.50
2023-03-30T06:52:58.085Z,8.20
2023-03-30T06:55:28.310Z,4.60
2023-03-30T06:58:01.193Z,4.60
2023-03-30T07:00:30.006Z,4.30
2023-03-30T07:03:19.105Z,3.80
2023-03-30T07:06:26.059Z,5.60
2023-03-30T07:08:54.513Z,4.10
2023-03-30T07:11:27.304Z,3.80
2023-03-30T07:13:58.661Z,3.30
2023-03-30T07:16:27.446Z,4.00
2023-03-30T07:18:58.020Z,4.20
2023-03-30T07:21:27.473Z,5.10
2023-03-30T07:23:56.986Z,5.40
2023-03-30T07:26:34.229Z,3.70
2023-03-30T07:29:09.296Z,7.00
2023-03-30T07:31:39.243Z,7.50
2023-03-30T07:34:12.196Z,4.80
2023-03-30T07:36:45.907Z,3.90
2023-03-30T07:39:17.041Z,4.70
2023-03-30T07:41:46.450Z,6.80
2023-03-30T07:44:15.240Z,5.20
2023-03-30T07:46:44.873Z,4.80
2023-03-30T07:49:17.939Z,5.60
2023-03-30T07:51:46.309Z,6.80
2023-03-30T07:54:27.300Z,8.10
2023-03-30T07:57:35.037Z,5.50
2023-03-30T08:00:06.467Z,4.70
2023-03-30T08:02:42.049Z,4.10
2023-03-30T08:05:15.887Z,6.50
2023-03-30T08:07:57.141Z,7.60
2023-03-30T08:10:30.064Z,5.20
2023-03-30T08:12:59.708Z,7.10
2023-03-30T08:15:30.126Z,5.80
2023-03-30T08:19:35.586Z,4.50
2023-03-30T08:22:03.761Z,6.30
2023-03-30T08:24:32.519Z,4.20
2023-03-30T08:27:01.939Z,4.30
2023-03-30T08:29:31.899Z,6.60
2023-03-30T08:32:00.212Z,4.40
2023-03-30T08:34:29.368Z,3.30
2023-03-30T08:36:58.324Z,5.10
2023-03-30T08:39:30.318Z,4.80
2023-03-30T08:42:32.679Z,6.20
2023-03-30T08:45:05.648Z,4.20
2023-03-30T08:47:39.742Z,4.00
2023-03-30T08:50:09.709Z,7.00
2023-03-30T08:52:38.654Z,4.20
2023-03-30T08:55:24.543Z,5.40
2023-03-30T08:58:03.786Z,3.10
2023-03-30T09:00:40.766Z,4.00
2023-03-30T09:03:28.391Z,3.30
2023-03-30T09:06:00.882Z,6.90
2023-03-30T09:08:32.215Z,3.80
2023-03-30T09:11:01.978Z,8.30
2023-03-30T09:13:35.482Z,3.80
2023-03-30T09:16:09.538Z,7.20
2023-03-30T09:18:38.428Z,6.00
2023-03-30T09:21:09.677Z,7.20
2023-03-30T09:23:38.116Z,7.10
2023-03-30T09:26:34.695Z,3.20
2023-03-30T09:29:15.191Z,6.20
2023-03-30T09:31:52.198Z,8.10
2023-03-30T09:34:27.691Z,5.80
2023-03-30T09:37:09.276Z,5.40
2023-03-30T09:39:38.882Z,3.00
2023-03-30T09:42:22.941Z,4.60
2023-03-30T09:44:52.860Z,6.50
2023-03-30T09:47:25.258Z,7.70
2023-03-30T09:50:00.685Z,7.00
2023-03-30T09:52:37.370Z,3.70
2023-03-30T09:58:18.729Z,4.50
2023-03-30T10:00:48.330Z,6.80
2023-03-30T10:03:21.319Z,6.50
2023-03-30T10:06:09.590Z,5.90
2023-03-30T10:08:55.522Z,3.40
2023-03-30T10:11:53.894Z,6.60
2023-03-30T10:16:59.283Z,4.10
2023-03-30T10:19:29.671Z,4.40
2023-03-30T10:21:59.317Z,6.00
2023-03-30T10:24:33.353Z,5.90
2023-03-30T10:27:13.253Z,4.40
2023-03-30T10:29:50.451Z,8.60
2023-03-30T10:32:24.024Z,5.10
2023-03-30T10:34:56.519Z,8.80
2023-03-30T10:37:29.773Z,5.00
2023-03-30T10:39:58.571Z,6.60
2023-03-30T10:42:27.072Z,8.50
2023-03-30T10:44:56.558Z,5.40
2023-03-30T10:47:40.187Z,3.60
2023-03-30T10:50:36.030Z,9.00
2023-03-30T10:53:38.401Z,6.50
2023-03-30T10:56:20.305Z,7.20
2023-03-30T10:59:11.720Z,7.10
2023-03-30T11:01:53.490Z,7.40
2023-03-30T11:04:47.271Z,5.70
2023-03-30T11:07:23.745Z,5.90
2023-03-30T11:09:55.192Z,7.50
2023-03-30T11:12:23.602Z,6.80
2023-03-30T11:15:22.792Z,4.10
2023-03-30T11:18:15.015Z,5.60
2023-03-30T11:20:57.222Z,6.30
2023-03-30T11:23:50.587Z,4.60
2023-03-30T11:26:47.721Z,10.10
2023-03-30T11:29:31.489Z,9.50
2023-03-30T11:32:37.660Z,6.60
2023-03-30T11:35:26.290Z,5.20
2023-03-30T11:38:09.721Z,4.60
2023-03-30T11:40:42.718Z,4.20
2023-03-30T11:43:12.673Z,3.90
2023-03-30T11:46:04.471Z,4.50
2023-03-30T11:48:33.043Z,7.30
2023-03-30T11:51:14.212Z,5.60
2023-03-30T11:53:52.114Z,4.10
2023-03-30T11:56:47.018Z,4.00
2023-03-30T11:59:30.867Z,4.80
2023-03-30T12:02:04.016Z,4.60
2023-03-30T12:05:11.550Z,4.80
2023-03-30T12:07:52.595Z,5.90
2023-03-30T12:10:28.793Z,6.90
2023-03-30T12:12:57.172Z,4.00
2023-03-30T12:15:40.502Z,5.60
2023-03-30T12:18:20.863Z,4.30
2023-03-30T12:21:08.285Z,4.20
2023-03-30T12:23:37.894Z,3.60
2023-03-30T12:26:29.211Z,4.00
2023-03-30T12:29:40.490Z,4.20
2023-03-30T12:31:47.929Z,4.30
2023-03-30T12:34:16.670Z,4.60
2023-03-30T12:36:49.499Z,3.90
2023-03-30T12:40:00.194Z,4.30
2023-03-30T12:42:34.876Z,4.60
2023-03-30T12:45:15.654Z,5.60
2023-03-30T12:48:26.542Z,5.50
2023-03-30T12:51:22.913Z,5.40
2023-03-30T12:54:01.941Z,3.80
2023-03-30T12:56:39.309Z,5.20
2023-03-30T12:59:22.683Z,4.70
2023-03-30T13:02:07.262Z,5.70
2023-03-30T13:04:38.811Z,6.30
2023-03-30T13:07:08.576Z,4.40
2023-03-30T13:09:59.388Z,5.30
2023-03-30T13:12:27.828Z,3.80
2023-03-30T13:15:06.203Z,4.70
2023-03-30T13:17:51.254Z,4.40
2023-03-30T13:20:29.938Z,6.10
2023-03-30T13:23:01.346Z,4.20
2023-03-30T13:25:37.677Z,7.00
2023-03-30T13:30:59.887Z,4.30
2023-03-30T13:33:30.293Z,4.20
2023-03-30T13:36:04.855Z,5.50
2023-03-30T13:38:48.042Z,4.80
2023-03-30T13:41:40.947Z,4.10
2023-03-30T13:44:18.400Z,5.00
2023-03-30T13:47:08.041Z,5.80
2023-03-30T13:49:48.974Z,4.90
2023-03-30T13:52:19.565Z,4.90
2023-03-30T13:54:48.015Z,4.80
2023-03-30T13:57:24.878Z,3.90
2023-03-30T13:59:58.232Z,4.40
2023-03-30T14:02:26.459Z,4.80
2023-03-30T14:05:22.226Z,4.80
2023-03-30T14:07:55.307Z,5.90
2023-03-30T14:10:23.697Z,4.70
2023-03-30T14:12:56.987Z,5.20
2023-03-30T14:15:34.071Z,5.10
2023-03-30T14:18:06.852Z,5.90
2023-03-30T14:20:50.127Z,4.40
2023-03-30T14:23:20.985Z,4.10
2023-03-30T14:25:52.957Z,4.00
2023-03-30T14:28:21.684Z,6.30
2023-03-30T14:30:53.073Z,3.60
2023-03-30T14:33:23.188Z,5.10
2023-03-30T14:35:59.122Z,3.80
2023-03-30T14:38:37.916Z,5.90
2023-03-30T14:41:13.743Z,3.90
2023-03-30T14:43:42.309Z,4.00
2023-03-30T14:46:11.903Z,5.00
2023-03-30T14:48:42.072Z,4.90
2023-03-30T14:51:43.665Z,4.50
2023-03-30T14:54:21.748Z,4.50
2023-03-30T14:57:01.789Z,5.00
2023-03-30T14:59:32.574Z,4.10
2023-03-30T15:02:00.924Z,5.30
2023-03-30T15:04:33.934Z,4.20
2023-03-30T15:07:02.148Z,4.80
2023-03-30T15:09:37.622Z,4.10
2023-03-30T15:12:06.151Z,5.10
2023-03-30T15:14:38.492Z,6.60
2023-03-30T15:17:11.428Z,6.30
2023-03-30T15:19:40.254Z,4.00
2023-03-30T15:22:23.716Z,5.60
2023-03-30T15:24:52.169Z,4.50
2023-03-30T15:27:21.160Z,4.50
2023-03-30T15:29:49.451Z,5.40
2023-03-30T15:32:21.350Z,6.60
2023-03-30T15:35:11.588Z,4.20
2023-03-30T15:37:39.865Z,6.00
2023-03-30T15:40:26.370Z,5.40
2023-03-30T15:43:27.253Z,5.90
2023-03-30T15:46:04.955Z,7.30
2023-03-30T15:48:43.333Z,6.10
2023-03-30T15:51:34.229Z,5.50
2023-03-30T15:54:03.908Z,5.00
2023-03-30T15:56:35.086Z,6.90
2023-03-30T15:59:04.077Z,5.50
2023-03-30T16:01:51.995Z,6.10
2023-03-30T16:04:22.522Z,6.30
2023-03-30T16:06:50.829Z,4.50
2023-03-30T16:09:19.211Z,5.20
2023-03-30T16:11:48.210Z,5.50
2023-03-30T16:14:23.009Z,6.30
2023-03-30T16:16:51.927Z,5.10
2023-03-30T16:19:20.345Z,5.80
2023-03-30T16:21:49.140Z,5.80
2023-03-30T16:24:19.139Z,8.70
2023-03-30T16:26:47.608Z,7.80
2023-03-30T16:29:21.666Z,7.00
2023-03-30T16:31:51.207Z,5.70
2023-03-30T16:34:19.498Z,5.20
2023-03-30T16:36:48.765Z,8.00
2023-03-30T16:39:24.813Z,6.60
2023-03-30T16:41:56.957Z,5.30
2023-03-30T16:44:25.534Z,5.40
2023-03-30T16:46:53.622Z,6.90
2023-03-30T16:49:24.614Z,6.00
2023-03-30T16:51:55.234Z,5.10
2023-03-30T16:54:32.523Z,9.30
2023-03-30T16:57:01.879Z,13.80
2023-03-30T16:59:34.391Z,11.80
2023-03-30T17:02:03.611Z,8.00
2023-03-30T17:04:31.760Z,5.80
2023-03-30T17:07:01.878Z,4.90
2023-03-30T17:09:30.380Z,5.50
2023-03-30T17:11:58.511Z,5.80
2023-03-30T17:14:27.789Z,6.20
2023-03-30T17:16:56.085Z,6.90
2023-03-30T17:19:25.636Z,8.30
2023-03-30T17:21:53.917Z,7.20
2023-03-30T17:24:21.918Z,5.10
2023-03-30T17:26:51.052Z,7.80
2023-03-30T17:29:19.870Z,6.60
2023-03-30T17:31:52.423Z,8.10
2023-03-30T17:34:22.426Z,7.10
2023-03-30T17:36:50.548Z,10.90
2023-03-30T17:39:19.940Z,6.50
2023-03-30T17:41:48.079Z,8.80
2023-03-30T17:44:18.015Z,12.10
2023-03-30T17:46:46.406Z,8.70
2023-03-30T17:49:16.531Z,9.50
2023-03-30T17:51:45.689Z,7.80
2023-03-30T17:54:14.936Z,8.10
2023-03-30T17:56:43.494Z,9.70
2023-03-30T17:59:12.352Z,8.30
2023-03-30T18:01:40.900Z,8.00
2023-03-30T18:04:09.567Z,12.70
2023-03-30T18:06:37.897Z,14.00
2023-03-30T18:09:12.534Z,11.10
2023-03-30T18:11:41.313Z,6.10
2023-03-30T18:14:09.541Z,9.00
2023-03-30T18:16:42.704Z,7.50
2023-03-30T18:19:12.472Z,10.50
2023-03-30T18:21:41.949Z,7.40
2023-03-30T18:24:13.499Z,9.00
2023-03-30T18:26:43.837Z,9.20
2023-03-30T18:29:22.373Z,9.80
2023-03-30T18:31:51.063Z,8.50
2023-03-30T18:34:19.811Z,5.60
2023-03-30T18:36:48.090Z,7.80
2023-03-30T18:39:22.512Z,11.80
2023-03-30T18:41:54.019Z,16.20
2023-03-30T18:44:23.466Z,16.20
2023-03-30T18:46:52.310Z,16.30
2023-03-30T18:49:24.019Z,8.70
2023-03-30T18:51:52.624Z,11.00
2023-03-30T18:54:20.670Z,6.60
2023-03-30T18:56:50.066Z,11.50
2023-03-30T18:59:26.242Z,13.90
2023-03-30T19:01:54.300Z,15.10
2023-03-30T19:04:22.698Z,6.80
2023-03-30T19:06:53.166Z,14.90
2023-03-30T19:09:29.837Z,8.20
2023-03-30T19:12:05.056Z,8.40
2023-03-30T19:14:33.518Z,14.40
2023-03-30T19:17:01.838Z,15.90
2023-03-30T19:19:30.239Z,10.90
2023-03-30T19:21:59.672Z,10.90
2023-03-30T19:24:28.051Z,15.90
2023-03-30T19:26:56.656Z,15.60
2023-03-30T19:29:27.246Z,12.10
2023-03-30T19:31:58.748Z,13.80
2023-03-30T19:34:27.038Z,13.40
2023-03-30T19:36:55.321Z,10.10
2023-03-30T19:39:23.551Z,11.00
2023-03-30T19:41:52.238Z,12.90
2023-03-30T19:44:21.179Z,13.70
2023-03-30T19:46:49.882Z,12.30
2023-03-30T19:49:17.986Z,11.10
2023-03-30T19:51:46.266Z,14.90
2023-03-30T19:54:16.284Z,12.80
2023-03-30T19:56:44.549Z,17.20
2023-03-30T19:59:15.510Z,13.10
2023-03-30T20:01:44.133Z,16.00
2023-03-30T20:04:12.563Z,11.90
2023-03-30T20:06:40.953Z,11.10
2023-03-30T20:09:12.193Z,16.40
2023-03-30T20:11:40.365Z,14.50
2023-03-30T20:14:08.995Z,15.60
2023-03-30T20:16:38.808Z,14.50
2023-03-30T20:19:13.134Z,15.60
2023-03-30T20:21:49.349Z,9.00
2023-03-30T20:24:17.624Z,16.10
2023-03-30T20:26:45.798Z,11.60
2023-03-30T20:29:14.994Z,16.10
2023-03-30T20:31:43.218Z,12.40
2023-03-30T20:37:23.578Z,11.50
2023-03-30T20:39:51.879Z,18.70
2023-03-30T20:42:30.288Z,19.50
2023-03-30T20:44:59.675Z,13.10
2023-03-30T20:47:30.872Z,16.00
2023-03-30T20:49:59.682Z,19.10
2023-03-30T20:52:27.773Z,13.30
2023-03-30T20:54:56.539Z,12.20
2023-03-30T20:57:24.837Z,18.60
2023-03-30T20:59:54.274Z,14.00
2023-03-30T21:02:23.220Z,12.70
2023-03-30T21:04:53.440Z,18.30
2023-03-30T21:07:25.712Z,18.00
2023-03-30T21:09:54.202Z,11.30
2023-03-30T21:12:22.579Z,11.10
2023-03-30T21:14:54.639Z,19.30
2023-03-30T21:17:23.133Z,18.60
2023-03-30T21:19:51.453Z,11.40
2023-03-30T21:22:19.774Z,14.80
2023-03-30T21:24:48.275Z,19.50
2023-03-30T21:27:16.634Z,14.10
2023-03-30T21:29:46.445Z,23.50
2023-03-30T21:32:14.934Z,24.00
2023-03-30T21:34:43.430Z,19.90
2023-03-30T21:37:11.721Z,17.60
2023-03-30T21:39:40.527Z,26.20
2023-03-30T21:42:08.856Z,24.90
2023-03-30T21:44:38.472Z,27.50
2023-03-30T21:47:07.043Z,16.00
2023-03-30T21:49:37.298Z,16.90
2023-03-30T21:52:05.547Z,20.20
2023-03-30T21:54:34.439Z,23.90
2023-03-30T21:57:02.660Z,33.10
2023-03-30T21:59:31.078Z,26.00
2023-03-30T22:01:59.903Z,25.40
2023-03-30T22:04:28.154Z,35.20
2023-03-30T22:06:56.629Z,26.40
2023-03-30T22:09:24.929Z,32.20
2023-03-30T22:11:55.651Z,45.90
2023-03-30T22:14:24.320Z,34.50
2023-03-30T22:16:52.508Z,31.80
2023-03-30T22:19:24.688Z,43.70
2023-03-30T22:21:53.067Z,26.70
2023-03-30T22:24:21.233Z,39.10
2023-03-30T22:26:49.817Z,24.50
2023-03-30T22:29:20.968Z,21.50
2023-03-30T22:31:51.652Z,39.60
2023-03-30T22:34:21.109Z,24.80
2023-03-30T22:36:49.294Z,36.90
2023-03-30T22:39:17.650Z,18.50
2023-03-30T22:41:46.364Z,32.90
2023-03-30T22:44:15.028Z,18.30
2023-03-30T22:46:43.610Z,28.80
2023-03-30T22:49:12.298Z,21.20
2023-03-30T22:51:52.772Z,28.50
2023-03-30T22:54:21.826Z,20.80
2023-03-30T22:56:51.264Z,25.80
2023-03-30T22:59:19.635Z,16.60
2023-03-30T23:01:47.917Z,15.10
2023-03-30T23:04:17.216Z,25.50
2023-03-30T23:06:46.104Z,16.80
2023-03-30T23:09:14.805Z,27.80
2023-03-30T23:11:46.151Z,15.10
2023-03-30T23:14:14.547Z,21.20
2023-03-30T23:16:42.803Z,19.30
2023-03-30T23:19:13.527Z,22.90
2023-03-30T23:21:44.888Z,13.80
2023-03-30T23:24:16.222Z,11.50
2023-03-30T23:26:45.116Z,19.60
2023-03-30T23:29:13.596Z,14.80
2023-03-30T23:31:43.100Z,23.60
2023-03-30T23:34:12.630Z,13.50
2023-03-30T23:36:43.412Z,22.20
2023-03-30T23:39:12.031Z,14.10
2023-03-30T23:41:40.714Z,23.30
2023-03-30T23:44:11.041Z,11.70
2023-03-30T23:46:40.108Z,12.50
2023-03-30T23:49:08.420Z,21.00
2023-03-30T23:51:37.715Z,14.70
2023-03-30T23:54:07.174Z,27.50
2023-03-30T23:56:37.152Z,30.30
2023-03-30T23:59:05.516Z,22.90
